createdAt,value
2023-01-10T00:01:54.260Z,99704.59
2023-01-10T00:04:22.651Z,99706.91
2023-01-10T00:06:51.048Z,99701.31
2023-01-10T00:09:19.351Z,99710.47
2023-01-10T00:12:05.966Z,99721.16
2023-01-10T00:14:37.227Z,99722.69
2023-01-10T00:17:06.300Z,99719.41
2023-01-10T00:19:34.586Z,99715.84
2023-01-10T00:22:06.729Z,99720.94
2023-01-10T00:24:35.091Z,99731.09
2023-01-10T00:27:04.016Z,99732.13
2023-01-10T00:29:32.621Z,99732.13
2023-01-10T00:32:01.160Z,99735.19
2023-01-10T00:34:29.463Z,99735.47
2023-01-10T00:36:57.803Z,99743.66
2023-01-10T00:39:28.438Z,99749.53
2023-01-10T00:42:14.989Z,99748.53
2023-01-10T00:44:43.314Z,99752.88
2023-01-10T00:47:11.599Z,99752.69
2023-01-10T00:49:40.088Z,99764.13
2023-01-10T00:52:08.477Z,99765.19
2023-01-10T00:54:36.868Z,99772.59
2023-01-10T00:57:05.303Z,99775.66
2023-01-10T00:59:33.574Z,99781.03
2023-01-10T01:02:02.125Z,99780.06
2023-01-10T01:04:35.041Z,99781.84
2023-01-10T01:07:04.058Z,99787.25
2023-01-10T01:09:32.467Z,99782.25
2023-01-10T01:12:00.860Z,99790.69
2023-01-10T01:14:29.128Z,99786.69
2023-01-10T01:16:58.800Z,99788.50
2023-01-10T01:19:28.341Z,99790.09
2023-01-10T01:21:56.612Z,99794.22
2023-01-10T01:24:25.842Z,99801.91
2023-01-10T01:26:54.218Z,99800.69
2023-01-10T01:29:23.006Z,99805.56
2023-01-10T01:31:51.578Z,99804.84
2023-01-10T01:34:20.068Z,99806.19
2023-01-10T01:36:49.004Z,99814.91
2023-01-10T01:39:17.284Z,99817.75
2023-01-10T01:42:01.363Z,99819.84
2023-01-10T01:44:37.176Z,99815.06
2023-01-10T01:47:09.951Z,99825.06
2023-01-10T01:49:42.347Z,99822.03
2023-01-10T01:52:20.194Z,99828.19
2023-01-10T01:54:48.658Z,99832.78
2023-01-10T01:57:24.748Z,99831.00
2023-01-10T01:59:56.272Z,99836.66
2023-01-10T02:02:32.549Z,99826.28
2023-01-10T02:05:07.085Z,99836.25
2023-01-10T02:07:41.851Z,99825.06
2023-01-10T02:10:22.509Z,99837.84
2023-01-10T02:12:54.523Z,99832.56
2023-01-10T02:15:23.436Z,99844.88
2023-01-10T02:17:54.160Z,99845.16
2023-01-10T02:20:24.741Z,99843.66
2023-01-10T02:23:21.831Z,99851.34
2023-01-10T02:26:09.342Z,99839.91
2023-01-10T02:28:52.610Z,99845.03
2023-01-10T02:31:56.257Z,99840.97
2023-01-10T02:34:37.837Z,99844.56
2023-01-10T02:37:23.832Z,99846.16
2023-01-10T02:40:01.967Z,99841.31
2023-01-10T02:42:32.862Z,99846.44
2023-01-10T02:45:30.575Z,99847.78
2023-01-10T02:47:59.785Z,99843.47
2023-01-10T02:50:38.134Z,99848.09
2023-01-10T02:53:11.905Z,99842.72
2023-01-10T02:56:11.655Z,99844.56
2023-01-10T02:58:57.049Z,99835.63
2023-01-10T03:01:28.538Z,99837.16
2023-01-10T03:04:33.691Z,99834.34
2023-01-10T03:07:08.177Z,99830.78
2023-01-10T03:09:54.786Z,99832.09
2023-01-10T03:12:36.300Z,99837.72
2023-01-10T03:15:07.480Z,99829.28
2023-01-10T03:17:38.351Z,99833.63
2023-01-10T03:20:08.386Z,99827.50
2023-01-10T03:22:40.689Z,99832.34
2023-01-10T03:25:13.423Z,99826.19
2023-01-10T03:28:01.723Z,99823.38
2023-01-10T03:30:53.041Z,99818.00
2023-01-10T03:33:28.627Z,99816.19
2023-01-10T03:36:23.485Z,99817.97
2023-01-10T03:39:18.954Z,99820.53
2023-01-10T03:42:09.325Z,99821.03
2023-01-10T03:45:05.983Z,99806.16
2023-01-10T03:47:47.248Z,99806.91
2023-01-10T03:50:27.536Z,99801.78
2023-01-10T03:52:55.930Z,99800.44
2023-01-10T03:55:28.375Z,99799.16
2023-01-10T03:57:56.998Z,99787.13
2023-01-10T04:00:26.988Z,99790.41
2023-01-10T04:02:56.665Z,99786.31
2023-01-10T04:05:24.960Z,99787.59
2023-01-10T04:07:53.721Z,99788.13
2023-01-10T04:10:23.933Z,99783.25
2023-01-10T04:12:53.408Z,99777.63
2023-01-10T04:15:21.768Z,99767.66
2023-01-10T04:17:50.788Z,99770.44
2023-01-10T04:20:19.190Z,99767.38
2023-01-10T04:22:47.947Z,99761.44
2023-01-10T04:25:16.916Z,99755.03
2023-01-10T04:27:45.231Z,99751.94
2023-01-10T04:30:13.704Z,99749.38
2023-01-10T04:32:42.028Z,99750.38
2023-01-10T04:35:10.689Z,99739.09
2023-01-10T04:37:38.976Z,99738.34
2023-01-10T04:40:08.008Z,99739.09
2023-01-10T04:42:36.327Z,99734.25
2023-01-10T04:45:04.873Z,99720.94
2023-01-10T04:47:33.250Z,99719.91
2023-01-10T04:50:01.571Z,99708.94
2023-01-10T04:52:29.829Z,99709.72
2023-01-10T04:54:58.400Z,99704.84
2023-01-10T04:57:26.735Z,99701.25
2023-01-10T04:59:55.030Z,99694.09
2023-01-10T05:02:23.479Z,99690.28
2023-01-10T05:04:51.810Z,99681.06
2023-01-10T05:07:20.205Z,99682.38
2023-01-10T05:09:48.525Z,99677.50
2023-01-10T05:12:16.935Z,99672.41
2023-01-10T05:14:45.239Z,99663.19
2023-01-10T05:17:13.554Z,99664.97
2023-01-10T05:19:41.901Z,99656.03
2023-01-10T05:22:10.242Z,99648.09
2023-01-10T05:24:38.543Z,99641.94
2023-01-10T05:27:06.936Z,99641.69
2023-01-10T05:29:36.242Z,99637.84
2023-01-10T05:32:04.581Z,99632.16
2023-01-10T05:34:32.866Z,99621.38
2023-01-10T05:37:01.331Z,99614.41
2023-01-10T05:39:29.848Z,99603.84
2023-01-10T05:41:58.192Z,99605.56
2023-01-10T05:44:26.501Z,99592.94
2023-01-10T05:46:54.795Z,99597.44
2023-01-10T05:49:23.131Z,99588.69
2023-01-10T05:51:51.537Z,99591.75
2023-01-10T05:54:20.200Z,99590.91
2023-01-10T05:56:50.490Z,99588.78
2023-01-10T05:59:28.128Z,99588.19
2023-01-10T06:01:59.916Z,99575.84
2023-01-10T06:04:29.022Z,99569.66
2023-01-10T06:06:58.080Z,99561.47
2023-01-10T06:09:34.086Z,99558.66
2023-01-10T06:12:02.387Z,99555.81
2023-01-10T06:14:30.702Z,99554.28
2023-01-10T06:16:59.443Z,99545.59
2023-01-10T06:19:29.814Z,99541.25
2023-01-10T06:22:01.283Z,99535.84
2023-01-10T06:24:34.148Z,99526.41
2023-01-10T06:27:02.658Z,99529.22
2023-01-10T06:29:34.741Z,99515.13
2023-01-10T06:32:03.470Z,99520.44
2023-01-10T06:34:31.781Z,99511.00
2023-01-10T06:37:02.637Z,99506.34
2023-01-10T06:39:30.972Z,99503.78
2023-01-10T06:41:59.343Z,99505.00
2023-01-10T06:44:28.112Z,99495.25
2023-01-10T06:46:56.391Z,99491.13
2023-01-10T06:49:24.766Z,99489.53
2023-01-10T06:51:53.276Z,99485.19
2023-01-10T06:54:21.607Z,99478.25
2023-01-10T06:56:50.218Z,99474.91
2023-01-10T06:59:18.534Z,99472.16
2023-01-10T07:01:47.070Z,99469.13
2023-01-10T07:04:15.540Z,99459.69
2023-01-10T07:06:44.053Z,99457.38
2023-01-10T07:09:12.529Z,99461.25
2023-01-10T07:11:40.815Z,99456.47
2023-01-10T07:14:10.751Z,99457.53
2023-01-10T07:16:40.264Z,99455.03
2023-01-10T07:19:08.909Z,99457.09
2023-01-10T07:21:37.278Z,99449.94
2023-01-10T07:24:05.792Z,99450.47
2023-01-10T07:26:34.177Z,99447.66
2023-01-10T07:29:02.560Z,99447.94
2023-01-10T07:31:30.939Z,99445.44
2023-01-10T07:33:59.346Z,99450.59
2023-01-10T07:36:27.694Z,99440.91
2023-01-10T07:38:56.123Z,99443.25
2023-01-10T07:41:24.427Z,99434.03
2023-01-10T07:43:52.784Z,99435.88
2023-01-10T07:46:21.177Z,99429.25
2023-01-10T07:48:50.119Z,99438.00
2023-01-10T07:51:18.756Z,99435.28
2023-01-10T07:53:47.087Z,99434.81
2023-01-10T07:56:15.849Z,99426.66
2023-01-10T07:58:44.156Z,99423.38
2023-01-10T08:01:12.533Z,99436.47
2023-01-10T08:03:40.984Z,99431.88
2023-01-10T08:06:15.994Z,99432.19
2023-01-10T08:08:45.277Z,99425.03
2023-01-10T08:11:13.604Z,99421.75
2023-01-10T08:13:42.037Z,99427.16
2023-01-10T08:16:10.646Z,99423.59
2023-01-10T08:18:43.316Z,99418.25
2023-01-10T08:21:11.860Z,99414.97
2023-01-10T08:23:40.188Z,99425.19
2023-01-10T08:26:08.578Z,99421.91
2023-01-10T08:28:36.903Z,99425.03
2023-01-10T08:31:10.314Z,99424.78
2023-01-10T08:33:40.708Z,99425.09
2023-01-10T08:36:20.629Z,99424.63
2023-01-10T08:38:49.296Z,99429.25
2023-01-10T08:41:17.808Z,99434.63
2023-01-10T08:43:46.147Z,99430.59
2023-01-10T08:46:14.478Z,99428.59
2023-01-10T08:48:43.042Z,99433.00
2023-01-10T08:51:11.845Z,99433.06
2023-01-10T08:53:43.891Z,99432.59
2023-01-10T08:56:13.489Z,99436.72
2023-01-10T08:58:41.898Z,99433.44
2023-01-10T09:01:13.023Z,99438.59
2023-01-10T09:03:41.865Z,99430.41
2023-01-10T09:06:10.584Z,99443.00
2023-01-10T09:08:40.129Z,99443.81
2023-01-10T09:11:08.977Z,99436.16
2023-01-10T09:13:37.300Z,99441.31
2023-01-10T09:16:06.026Z,99445.69
2023-01-10T09:18:35.088Z,99440.34
2023-01-10T09:21:04.324Z,99445.50
2023-01-10T09:23:33.094Z,99434.00
2023-01-10T09:26:03.851Z,99444.78
2023-01-10T09:28:32.268Z,99448.06
2023-01-10T09:31:01.955Z,99440.69
2023-01-10T09:33:45.333Z,99438.41
2023-01-10T09:36:16.387Z,99447.13
2023-01-10T09:38:45.694Z,99449.69
2023-01-10T09:41:29.590Z,99452.25
2023-01-10T09:44:21.726Z,99449.97
2023-01-10T09:47:26.980Z,99449.47
2023-01-10T09:50:24.018Z,99449.75
2023-01-10T09:52:57.838Z,99454.88
2023-01-10T09:55:33.565Z,99451.03
2023-01-10T09:58:11.860Z,99458.19
2023-01-10T10:00:46.229Z,99461.81
2023-01-10T10:03:41.922Z,99466.94
2023-01-10T10:06:15.586Z,99473.34
2023-01-10T10:08:46.720Z,99477.94
2023-01-10T10:11:27.262Z,99473.91
2023-01-10T10:14:24.346Z,99476.69
2023-01-10T10:17:28.468Z,99476.72
2023-01-10T10:20:31.480Z,99480.84
2023-01-10T10:23:02.832Z,99482.13
2023-01-10T10:26:08.356Z,99478.81
2023-01-10T10:29:13.498Z,99487.50
2023-01-10T10:32:00.207Z,99491.06
2023-01-10T10:34:50.608Z,99492.59
2023-01-10T10:37:33.880Z,99488.53
2023-01-10T10:40:04.009Z,99492.13
2023-01-10T10:42:37.254Z,99500.75
2023-01-10T10:45:16.918Z,99497.22
2023-01-10T10:47:51.819Z,99503.09
2023-01-10T10:50:33.694Z,99500.28
2023-01-10T10:53:04.472Z,99503.88
2023-01-10T10:55:36.532Z,99501.84
2023-01-10T10:58:09.366Z,99509.97
2023-01-10T11:00:37.767Z,99516.34
2023-01-10T11:03:34.951Z,99511.75
2023-01-10T11:06:03.847Z,99514.81
2023-01-10T11:08:33.206Z,99517.38
2023-01-10T11:11:07.663Z,99522.72
2023-01-10T11:13:35.969Z,99515.84
2023-01-10T11:16:07.363Z,99517.88
2023-01-10T11:18:36.194Z,99518.59
2023-01-10T11:21:16.508Z,99525.50
2023-01-10T11:23:58.706Z,99513.75
2023-01-10T11:26:37.226Z,99529.78
2023-01-10T11:29:11.872Z,99521.13
2023-01-10T11:31:40.329Z,99530.03
2023-01-10T11:34:23.908Z,99529.03
2023-01-10T11:36:58.267Z,99531.06
2023-01-10T11:39:28.263Z,99537.16
2023-01-10T11:41:59.103Z,99539.97
2023-01-10T11:44:29.997Z,99540.47
2023-01-10T11:47:05.008Z,99539.72
2023-01-10T11:49:39.172Z,99539.97
2023-01-10T11:52:27.014Z,99548.88
2023-01-10T11:55:01.251Z,99547.84
2023-01-10T11:57:33.239Z,99549.13
2023-01-10T12:00:11.331Z,99548.88
2023-01-10T12:02:45.165Z,99554.97
2023-01-10T12:05:24.661Z,99555.47
2023-01-10T12:08:17.169Z,99558.00
2023-01-10T12:11:20.768Z,99568.44
2023-01-10T12:13:52.446Z,99566.16
2023-01-10T12:16:29.890Z,99569.47
2023-01-10T12:19:01.221Z,99579.91
2023-01-10T12:21:42.602Z,99586.78
2023-01-10T12:24:17.597Z,99586.50
2023-01-10T12:26:48.318Z,99581.41
2023-01-10T12:29:21.842Z,99594.91
2023-01-10T12:31:52.244Z,99593.38
2023-01-10T12:34:47.659Z,99597.97
2023-01-10T12:37:20.775Z,99594.91
2023-01-10T12:40:21.144Z,99593.88
2023-01-10T12:43:38.953Z,99593.09
2023-01-10T12:47:04.628Z,99601.75
2023-01-10T12:49:45.884Z,99603.25
2023-01-10T12:52:49.420Z,99598.38
2023-01-10T12:57:57.425Z,99604.16
2023-01-10T13:00:40.620Z,99605.94
2023-01-10T13:03:21.079Z,99612.00
2023-01-10T13:05:51.661Z,99610.47
2023-01-10T13:08:25.341Z,99611.47
2023-01-10T13:10:57.111Z,99617.28
2023-01-10T13:13:35.158Z,99613.47
2023-01-10T13:16:28.146Z,99618.78
2023-01-10T13:19:29.271Z,99622.59
2023-01-10T13:22:20.820Z,99628.69
2023-01-10T13:25:03.361Z,99627.66
2023-01-10T13:27:35.211Z,99625.34
2023-01-10T13:30:07.237Z,99628.66
2023-01-10T13:32:37.386Z,99626.34
2023-01-10T13:35:18.540Z,99630.91
2023-01-10T13:37:54.317Z,99623.78
2023-01-10T13:40:32.727Z,99631.16
2023-01-10T13:43:35.412Z,99631.34
2023-01-10T13:46:19.022Z,99633.13
2023-01-10T13:49:01.015Z,99635.66
2023-01-10T13:51:29.618Z,99634.59
2023-01-10T13:54:25.241Z,99639.94
2023-01-10T13:56:53.673Z,99634.84
2023-01-10T13:59:43.392Z,99645.25
2023-01-10T14:02:35.506Z,99640.94
2023-01-10T14:05:19.251Z,99639.41
2023-01-10T14:07:51.436Z,99635.56
2023-01-10T14:10:30.245Z,99638.88
2023-01-10T14:13:17.257Z,99637.31
2023-01-10T14:15:48.633Z,99630.97
2023-01-10T14:18:29.107Z,99639.84
2023-01-10T14:21:07.234Z,99639.09
2023-01-10T14:23:50.958Z,99633.50
2023-01-10T14:26:39.805Z,99645.19
2023-01-10T14:29:13.720Z,99641.63
2023-01-10T14:31:50.870Z,99657.63
2023-01-10T14:34:38.236Z,99656.88
2023-01-10T14:37:29.776Z,99660.16
2023-01-10T14:39:58.335Z,99660.16
2023-01-10T14:42:29.363Z,99669.75
2023-01-10T14:45:30.679Z,99670.75
2023-01-10T14:47:58.974Z,99665.66
2023-01-10T14:50:33.525Z,99670.22
2023-01-10T14:53:01.961Z,99661.03
2023-01-10T14:55:30.320Z,99657.47
2023-01-10T14:58:01.306Z,99659.50
2023-01-10T15:00:36.033Z,99661.53
2023-01-10T15:03:05.157Z,99659.25
2023-01-10T15:05:40.557Z,99654.41
2023-01-10T15:08:29.529Z,99662.81
2023-01-10T15:11:10.484Z,99658.97
2023-01-10T15:13:54.949Z,99652.63
2023-01-10T15:16:26.018Z,99647.50
2023-01-10T15:18:57.499Z,99649.03
2023-01-10T15:21:26.836Z,99645.22
2023-01-10T15:23:55.245Z,99645.72
2023-01-10T15:26:35.055Z,99643.69
2023-01-10T15:29:14.230Z,99644.94
2023-01-10T15:31:43.574Z,99644.19
2023-01-10T15:34:20.883Z,99643.41
2023-01-10T15:36:57.009Z,99642.63
2023-01-10T15:39:32.268Z,99657.38
2023-01-10T15:42:09.396Z,99639.84
2023-01-10T15:44:39.608Z,99659.41
2023-01-10T15:47:34.477Z,99654.59
2023-01-10T15:50:03.169Z,99649.00
2023-01-10T15:52:31.548Z,99651.78
2023-01-10T15:55:00.260Z,99649.75
2023-01-10T15:57:33.883Z,99651.31
2023-01-10T16:00:02.445Z,99644.94
2023-01-10T16:02:33.772Z,99643.69
2023-01-10T16:05:23.032Z,99644.44
2023-01-10T16:07:51.637Z,99643.69
2023-01-10T16:10:28.503Z,99640.13
2023-01-10T16:13:32.344Z,99639.63
2023-01-10T16:16:04.155Z,99637.59
2023-01-10T16:18:32.888Z,99637.59
2023-01-10T16:21:04.104Z,99634.78
2023-01-10T16:23:35.849Z,99631.22
2023-01-10T16:26:10.243Z,99630.47
2023-01-10T16:28:38.976Z,99631.22
2023-01-10T16:31:11.794Z,99633.25
2023-01-10T16:33:41.424Z,99625.38
2023-01-10T16:36:18.566Z,99630.97
2023-01-10T16:38:46.981Z,99626.63
2023-01-10T16:41:34.220Z,99618.72
2023-01-10T16:44:02.709Z,99615.94
2023-01-10T16:46:31.883Z,99621.53
2023-01-10T16:49:00.987Z,99626.34
2023-01-10T16:51:33.306Z,99626.34
2023-01-10T16:54:02.498Z,99614.41
2023-01-10T16:56:31.519Z,99617.19
2023-01-10T16:58:59.997Z,99606.50
2023-01-10T17:01:33.452Z,99606.50
2023-01-10T17:04:02.399Z,99611.84
2023-01-10T17:06:30.880Z,99617.88
2023-01-10T17:08:59.165Z,99617.13
2023-01-10T17:11:39.204Z,99616.34
2023-01-10T17:14:07.700Z,99612.03
2023-01-10T17:16:36.109Z,99609.22
2023-01-10T17:19:04.632Z,99614.06
2023-01-10T17:21:32.921Z,99607.44
2023-01-10T17:24:01.221Z,99608.19
2023-01-10T17:26:29.520Z,99603.09
2023-01-10T17:28:57.823Z,99600.31
2023-01-10T17:31:26.198Z,99594.44
2023-01-10T17:33:54.597Z,99606.38
2023-01-10T17:36:23.574Z,99596.97
2023-01-10T17:38:51.918Z,99601.78
2023-01-10T17:41:20.242Z,99595.44
2023-01-10T17:43:48.568Z,99594.66
2023-01-10T17:46:18.718Z,99595.16
2023-01-10T17:48:47.056Z,99598.72
2023-01-10T17:51:15.440Z,99578.88
2023-01-10T17:53:43.722Z,99591.31
2023-01-10T17:56:12.626Z,99577.06
2023-01-10T17:58:40.980Z,99574.00
2023-01-10T18:01:21.777Z,99576.53
2023-01-10T18:03:52.688Z,99577.53
2023-01-10T18:06:24.518Z,99577.72
2023-01-10T18:08:54.150Z,99579.47
2023-01-10T18:11:26.298Z,99567.75
2023-01-10T18:13:55.172Z,99564.69
2023-01-10T18:16:25.609Z,99573.56
2023-01-10T18:18:55.371Z,99564.91
2023-01-10T18:21:23.721Z,99570.97
2023-01-10T18:24:00.332Z,99556.75
2023-01-10T18:26:28.631Z,99558.78
2023-01-10T18:28:56.931Z,99560.78
2023-01-10T18:31:25.450Z,99563.28
2023-01-10T18:33:54.630Z,99563.28
2023-01-10T18:36:25.235Z,99563.28
2023-01-10T18:38:53.926Z,99558.97
2023-01-10T18:41:22.596Z,99561.75
2023-01-10T18:43:50.900Z,99563.78
2023-01-10T18:46:22.606Z,99554.63
2023-01-10T18:48:53.683Z,99551.06
2023-01-10T18:51:23.608Z,99553.88
2023-01-10T18:53:53.839Z,99552.34
2023-01-10T18:56:22.298Z,99554.09
2023-01-10T18:58:50.692Z,99546.94
2023-01-10T19:01:21.391Z,99548.19
2023-01-10T19:03:51.142Z,99538.56
2023-01-10T19:06:23.563Z,99542.59
2023-01-10T19:08:52.571Z,99535.50
2023-01-10T19:11:21.652Z,99539.81
2023-01-10T19:13:54.789Z,99538.28
2023-01-10T19:16:24.506Z,99539.03
2023-01-10T19:18:58.474Z,99546.66
2023-01-10T19:21:28.240Z,99538.28
2023-01-10T19:23:57.484Z,99539.03
2023-01-10T19:26:26.718Z,99533.19
2023-01-10T19:28:55.329Z,99535.50
2023-01-10T19:31:26.105Z,99527.88
2023-01-10T19:33:55.637Z,99532.19
2023-01-10T19:36:25.539Z,99527.09
2023-01-10T19:39:00.282Z,99531.44
2023-01-10T19:41:30.285Z,99533.75
2023-01-10T19:44:05.031Z,99525.84
2023-01-10T19:46:34.975Z,99528.63
2023-01-10T19:49:08.540Z,99519.50
2023-01-10T19:51:41.602Z,99519.50
2023-01-10T19:54:10.453Z,99519.50
2023-01-10T19:56:38.972Z,99516.69
2023-01-10T19:59:08.554Z,99516.69
2023-01-10T20:01:37.189Z,99521.03
2023-01-10T20:04:07.408Z,99515.44
2023-01-10T20:06:39.272Z,99513.91
2023-01-10T20:09:08.444Z,99507.81
2023-01-10T20:11:41.328Z,99513.41
2023-01-10T20:14:15.466Z,99505.03
2023-01-10T20:16:44.282Z,99501.47
2023-01-10T20:19:13.636Z,99505.03
2023-01-10T20:21:43.433Z,99504.25
2023-01-10T20:24:21.928Z,99501.47
2023-01-10T20:26:52.082Z,99501.47
2023-01-10T20:29:21.093Z,99503.50
2023-01-10T20:31:56.758Z,99499.94
2023-01-10T20:34:25.383Z,99508.81
2023-01-10T20:36:55.300Z,99504.00
2023-01-10T20:39:26.385Z,99502.47
2023-01-10T20:41:54.779Z,99502.47
2023-01-10T20:44:23.771Z,99502.97
2023-01-10T20:46:52.133Z,99507.00
2023-01-10T20:49:20.887Z,99501.91
2023-01-10T20:51:54.622Z,99501.66
2023-01-10T20:54:23.025Z,99495.78
2023-01-10T20:56:51.430Z,99497.81
2023-01-10T20:59:19.803Z,99502.63
2023-01-10T21:01:48.163Z,99500.34
2023-01-10T21:04:16.481Z,99495.25
2023-01-10T21:06:44.812Z,99506.41
2023-01-10T21:09:14.854Z,99498.81
2023-01-10T21:11:59.420Z,99504.88
2023-01-10T21:14:31.524Z,99510.94
2023-01-10T21:16:59.855Z,99506.63
2023-01-10T21:19:28.156Z,99505.88
2023-01-10T21:21:56.446Z,99507.13
2023-01-10T21:24:26.177Z,99506.34
2023-01-10T21:26:54.495Z,99511.66
2023-01-10T21:29:22.787Z,99508.09
2023-01-10T21:31:54.067Z,99504.28
2023-01-10T21:34:22.622Z,99511.56
2023-01-10T21:36:50.969Z,99509.28
2023-01-10T21:39:19.584Z,99520.19
2023-01-10T21:42:06.087Z,99516.34
2023-01-10T21:44:34.670Z,99513.00
2023-01-10T21:47:03.279Z,99520.31
2023-01-10T21:49:32.660Z,99522.84
2023-01-10T21:52:01.038Z,99517.47
2023-01-10T21:54:29.379Z,99523.28
2023-01-10T21:56:57.663Z,99515.88
2023-01-10T21:59:26.567Z,99521.66
2023-01-10T22:01:54.955Z,99523.88
2023-01-10T22:04:23.357Z,99522.84
2023-01-10T22:06:51.782Z,99516.22
2023-01-10T22:09:20.155Z,99524.00
2023-01-10T22:11:48.456Z,99522.94
2023-01-10T22:14:16.917Z,99522.66
2023-01-10T22:16:45.214Z,99528.75
2023-01-10T22:19:14.427Z,99531.25
2023-01-10T22:21:42.701Z,99538.09
2023-01-10T22:24:11.122Z,99537.31
2023-01-10T22:26:39.578Z,99528.19
2023-01-10T22:29:07.949Z,99534.22
2023-01-10T22:31:36.363Z,99538.25
2023-01-10T22:34:04.703Z,99548.66
2023-01-10T22:36:33.066Z,99546.34
2023-01-10T22:39:01.369Z,99546.06
2023-01-10T22:41:29.843Z,99555.69
2023-01-10T22:43:58.621Z,99554.66
2023-01-10T22:46:27.408Z,99557.63
2023-01-10T22:48:55.737Z,99558.63
2023-01-10T22:51:25.200Z,99559.09
2023-01-10T22:53:56.167Z,99564.88
2023-01-10T22:56:27.012Z,99564.13
2023-01-10T22:58:55.408Z,99569.41
2023-01-10T23:01:25.844Z,99562.28
2023-01-10T23:03:54.231Z,99569.63
2023-01-10T23:06:22.796Z,99570.56
2023-01-10T23:08:52.323Z,99575.06
2023-01-10T23:11:22.460Z,99569.22
2023-01-10T23:13:51.090Z,99582.38
2023-01-10T23:16:23.161Z,99572.50
2023-01-10T23:18:51.657Z,99578.34
2023-01-10T23:21:20.304Z,99574.31
2023-01-10T23:23:48.636Z,99584.22
2023-01-10T23:26:17.010Z,99578.63
2023-01-10T23:28:49.296Z,99582.19
2023-01-10T23:31:23.341Z,99592.84
2023-01-10T23:33:52.573Z,99591.59
2023-01-10T23:36:21.207Z,99595.66
2023-01-10T23:38:49.534Z,99597.94
2023-01-10T23:41:18.148Z,99604.28
2023-01-10T23:43:46.440Z,99606.63
2023-01-10T23:46:14.881Z,99611.44
2023-01-10T23:48:44.077Z,99610.97
2023-01-10T23:51:12.384Z,99611.72
2023-01-10T23:53:41.614Z,99606.16
2023-01-10T23:56:15.717Z,99615.28
2023-01-10T23:58:44.165Z,99612.00
